createdAt,value
2022-10-13T00:02:14.621Z,10.21
2022-10-13T00:12:36.800Z,10.27
2022-10-13T00:22:58.160Z,10.36
2022-10-13T00:33:19.538Z,10.39
2022-10-13T00:43:47.003Z,10.50
2022-10-13T00:54:09.656Z,10.47
2022-10-13T01:04:33.859Z,10.51
2022-10-13T01:15:03.780Z,10.38
2022-10-13T01:25:37.758Z,10.30
2022-10-13T01:36:04.513Z,10.28
2022-10-13T01:46:32.373Z,10.29
2022-10-13T01:56:56.866Z,10.34
2022-10-13T02:07:27.301Z,10.32
2022-10-13T02:17:49.975Z,10.29
2022-10-13T02:28:12.803Z,10.25
2022-10-13T02:38:34.467Z,10.21
2022-10-13T02:48:55.814Z,10.29
2022-10-13T02:59:17.188Z,10.34
2022-10-13T03:09:38.544Z,10.33
2022-10-13T03:19:59.900Z,10.36
2022-10-13T03:30:21.469Z,10.45
2022-10-13T03:40:42.815Z,10.29
2022-10-13T03:51:04.897Z,10.37
2022-10-13T04:01:27.908Z,10.35
2022-10-13T04:11:50.334Z,10.49
2022-10-13T04:22:11.695Z,10.37
2022-10-13T04:32:33.076Z,10.37
2022-10-13T04:42:54.416Z,10.39
2022-10-13T04:53:19.171Z,10.45
2022-10-13T05:03:40.810Z,10.52
2022-10-13T05:14:02.385Z,10.62
2022-10-13T05:24:31.179Z,10.60
2022-10-13T05:34:52.676Z,10.59
2022-10-13T05:45:14.073Z,10.67
2022-10-13T05:55:35.744Z,10.76
2022-10-13T06:05:57.093Z,10.77
2022-10-13T06:16:18.761Z,10.86
2022-10-13T06:26:40.469Z,10.87
2022-10-13T06:37:01.945Z,10.93
2022-10-13T06:47:23.356Z,11.01
2022-10-13T06:57:45.021Z,11.09
2022-10-13T07:08:06.386Z,11.22
2022-10-13T07:18:27.723Z,11.38
2022-10-13T07:28:49.349Z,11.40
2022-10-13T07:39:10.879Z,11.65
2022-10-13T07:49:32.213Z,11.71
2022-10-13T07:59:53.870Z,11.83
2022-10-13T08:10:15.354Z,11.88
2022-10-13T08:20:41.506Z,12.14
2022-10-13T08:31:05.218Z,12.31
2022-10-13T08:41:28.514Z,12.54
2022-10-13T08:51:49.894Z,12.53
2022-10-13T09:02:13.693Z,12.74
2022-10-13T09:12:35.071Z,12.97
2022-10-13T09:23:04.337Z,13.09
2022-10-13T09:33:25.751Z,13.27
2022-10-13T09:43:47.099Z,13.64
2022-10-13T09:54:28.707Z,13.91
2022-10-13T10:04:52.642Z,14.00
2022-10-13T10:15:24.080Z,13.95
2022-10-13T10:25:49.202Z,14.01
2022-10-13T10:36:16.915Z,14.18
2022-10-13T10:46:51.319Z,14.24
2022-10-13T10:57:15.749Z,14.53
2022-10-13T11:07:40.169Z,14.57
2022-10-13T11:18:22.058Z,14.90
2022-10-13T11:28:43.462Z,15.07
2022-10-13T11:39:04.817Z,15.32
2022-10-13T11:49:45.017Z,15.36
2022-10-13T12:00:13.425Z,15.45
2022-10-13T12:10:36.045Z,15.46
2022-10-13T12:20:58.522Z,15.44
2022-10-13T12:31:22.161Z,15.35
2022-10-13T12:41:45.036Z,15.61
2022-10-13T12:52:11.287Z,16.03
2022-10-13T13:02:33.040Z,15.89
2022-10-13T13:12:55.141Z,15.90
2022-10-13T13:23:19.065Z,15.93
2022-10-13T13:33:40.805Z,15.74
2022-10-13T13:44:02.153Z,15.48
2022-10-13T13:54:24.047Z,15.40
2022-10-13T14:04:45.788Z,15.31
2022-10-13T14:15:07.567Z,15.26
2022-10-13T14:25:28.902Z,15.03
2022-10-13T14:35:50.253Z,15.14
2022-10-13T14:46:12.623Z,15.04
2022-10-13T14:56:34.678Z,14.86
2022-10-13T15:06:56.054Z,14.68
2022-10-13T15:17:17.476Z,14.69
2022-10-13T15:27:41.814Z,14.52
2022-10-13T15:38:03.643Z,14.58
2022-10-13T15:48:25.362Z,14.28
2022-10-13T15:58:46.819Z,14.15
2022-10-13T16:09:08.193Z,14.16
2022-10-13T16:19:29.645Z,14.13
2022-10-13T16:29:51.169Z,14.16
2022-10-13T16:40:12.558Z,14.10
2022-10-13T16:50:33.933Z,14.01
2022-10-13T17:01:02.160Z,14.14
2022-10-13T17:11:25.563Z,14.01
2022-10-13T17:21:47.228Z,14.03
2022-10-13T17:32:08.968Z,14.04
2022-10-13T17:42:30.365Z,13.96
2022-10-13T17:52:51.961Z,13.99
2022-10-13T18:03:13.313Z,14.03
2022-10-13T18:13:36.003Z,13.95
2022-10-13T18:23:58.944Z,13.90
2022-10-13T18:34:20.329Z,13.85
2022-10-13T18:44:41.737Z,13.73
2022-10-13T18:55:03.210Z,13.70
2022-10-13T19:05:24.625Z,13.74
2022-10-13T19:15:46.096Z,13.74
2022-10-13T19:26:13.904Z,13.66
2022-10-13T19:36:38.830Z,13.54
2022-10-13T19:47:00.224Z,13.65
2022-10-13T19:57:22.031Z,13.57
2022-10-13T20:07:43.650Z,13.64
2022-10-13T20:18:05.757Z,13.60
2022-10-13T20:28:27.962Z,13.59
2022-10-13T20:38:49.535Z,13.64
2022-10-13T20:49:12.693Z,13.59
2022-10-13T20:59:34.566Z,13.57
2022-10-13T21:09:55.985Z,13.60
2022-10-13T21:20:17.334Z,13.55
2022-10-13T21:30:38.726Z,13.57
2022-10-13T21:41:00.088Z,13.51
2022-10-13T21:51:29.611Z,13.52
2022-10-13T22:01:51.122Z,13.49
2022-10-13T22:12:12.561Z,13.49
2022-10-13T22:22:33.945Z,13.45
2022-10-13T22:32:55.306Z,13.54
2022-10-13T22:43:16.733Z,13.47
2022-10-13T22:53:38.375Z,13.57
2022-10-13T23:03:59.906Z,13.56
2022-10-13T23:14:21.391Z,13.53
2022-10-13T23:24:42.773Z,13.60
2022-10-13T23:35:04.270Z,13.61
2022-10-13T23:45:25.724Z,13.62
2022-10-13T23:55:47.092Z,13.57
